PWSweather.com
Personal Weather Stations
Station Observations
SHAHALMS1
Eftra, Falkenberg, HA

EftraFalkenberg, HA

Lat: 56.85, Lon: 12.65

Elevation: 140

Station Type:

http://hem.passagen.se/risarp101

High Low Average
Temperature 46.0°F7.8°C 38.3°F3.5°C 41.5°F5.3°C
Dew Point 43.8°F6.6°C 35.3°F1.8°C 38.1°F3.4°C
Winds 18.4 mph 29.6 kmh 6.9 mph 11.1 kmh 10.0 mph SW16.1 kmh SW
Wind Gusts 39.4 mph63.4 kmh 9.6 mph15.4 kmh 21.0 mph33.8 kmh
Humidity 96% 77% 88%
Pressure 29.65 in1004.1 mb 29.30 in992.2 mb -
Precipitation 0.31 in7.9 mm - -
Hour Temp Dew Point Humidity Winds Wind Gusts Pressure Precip Precip Rate Daily Precip Total
12:00 AM 38.3°F3.5°C 35.6°F2.0°C 90% 8.0 mph S12.9 kmh S 18.3 mph29.5 kmh 29.65 in1004.1 mb 0.00 in0.0 mm 0.00 in0.0 mm 0.00 in0.0 mm
12:15 AM 38.5°F3.6°C 35.8°F2.1°C 90% 8.0 mph S12.9 kmh S 16.1 mph25.9 kmh 29.65 in1004.1 mb 0.00 in0.0 mm 0.00 in0.0 mm 0.00 in0.0 mm
12:27 AM 38.5°F3.6°C 35.8°F2.1°C 90% 7.1 mph S11.4 kmh S 9.6 mph15.4 kmh 29.62 in1003.0 mb 0.00 in0.0 mm 0.00 in0.0 mm 0.00 in0.0 mm
12:28 AM 38.5°F3.6°C 35.8°F2.1°C 90% 7.1 mph S11.4 kmh S 9.6 mph15.4 kmh 29.62 in1003.0 mb 0.00 in0.0 mm 0.00 in0.0 mm 0.00 in0.0 mm
12:29 AM 38.5°F3.6°C 35.8°F2.1°C 90% 7.0 mph S11.3 kmh S 9.6 mph15.4 kmh 29.62 in1003.0 mb 0.00 in0.0 mm 0.00 in0.0 mm 0.00 in0.0 mm
12:30 AM 38.5°F3.6°C 35.8°F2.1°C 90% 7.5 mph SSE12.1 kmh SSE 11.8 mph19.0 kmh 29.62 in1003.0 mb 0.00 in0.0 mm 0.00 in0.0 mm 0.00 in0.0 mm
12:31 AM 38.5°F3.6°C 35.8°F2.1°C 90% 7.0 mph SSE11.3 kmh SSE 11.8 mph19.0 kmh 29.62 in1003.0 mb 0.00 in0.0 mm 0.00 in0.0 mm 0.00 in0.0 mm
12:32 AM 38.5°F3.6°C 35.8°F2.1°C 90% 7.2 mph S11.6 kmh S 11.8 mph19.0 kmh 29.62 in1003.0 mb 0.00 in0.0 mm 0.00 in0.0 mm 0.00 in0.0 mm
12:33 AM 38.5°F3.6°C 35.8°F2.1°C 90% 7.3 mph S11.7 kmh S 11.8 mph19.0 kmh 29.62 in1003.0 mb 0.05 in1.3 mm 3.00 in76.2 mm 0.05 in1.3 mm
12:46 AM 38.7°F3.7°C 36.0°F2.2°C 90% 8.7 mph S14.0 kmh S 19.7 mph31.7 kmh 29.59 in1002.0 mb 0.05 in1.3 mm 0.00 in0.0 mm 0.05 in1.3 mm
01:00 AM 38.7°F3.7°C 36.3°F2.4°C 91% 8.9 mph S14.3 kmh S 21.1 mph34.0 kmh 29.59 in1002.0 mb 0.05 in1.3 mm 0.00 in0.0 mm 0.05 in1.3 mm
01:15 AM 38.7°F3.7°C 36.3°F2.4°C 91% 7.4 mph S11.9 kmh S 18.3 mph29.5 kmh 29.56 in1001.0 mb 0.05 in1.3 mm 0.00 in0.0 mm 0.05 in1.3 mm
01:30 AM 38.7°F3.7°C 36.3°F2.4°C 91% 7.6 mph S12.2 kmh S 17.5 mph28.2 kmh 29.59 in1002.0 mb 0.05 in1.3 mm 0.00 in0.0 mm 0.05 in1.3 mm
01:45 AM 38.8°F3.8°C 36.4°F2.4°C 91% 8.5 mph S13.7 kmh S 21.8 mph35.1 kmh 29.59 in1002.0 mb 0.00 in0.0 mm 0.00 in0.0 mm 0.05 in1.3 mm
02:00 AM 38.8°F3.8°C 36.7°F2.6°C 92% 9.0 mph S14.5 kmh S 20.4 mph32.8 kmh 29.56 in1001.0 mb 0.00 in0.0 mm 0.00 in0.0 mm 0.05 in1.3 mm
02:15 AM 39.0°F3.9°C 37.2°F2.9°C 93% 9.9 mph S15.9 kmh S 20.4 mph32.8 kmh 29.53 in1000.0 mb 0.00 in0.0 mm 0.00 in0.0 mm 0.05 in1.3 mm
02:30 AM 39.0°F3.9°C 37.2°F2.9°C 93% 9.0 mph S14.5 kmh S 24.3 mph39.1 kmh 29.50 in999.0 mb 0.00 in0.0 mm 0.00 in0.0 mm 0.05 in1.3 mm
02:45 AM 39.2°F4.0°C 37.3°F2.9°C 93% 9.6 mph S15.4 kmh S 24.7 mph39.8 kmh 29.53 in1000.0 mb 0.00 in0.0 mm 0.00 in0.0 mm 0.05 in1.3 mm
03:00 AM 39.4°F4.1°C 37.8°F3.2°C 94% 9.5 mph S15.3 kmh S 25.4 mph40.9 kmh 29.53 in1000.0 mb 0.00 in0.0 mm 0.00 in0.0 mm 0.05 in1.3 mm
03:15 AM 39.4°F4.1°C 37.8°F3.2°C 94% 8.7 mph S14.0 kmh S 21.1 mph34.0 kmh 29.50 in999.0 mb 0.00 in0.0 mm 0.00 in0.0 mm 0.05 in1.3 mm
03:30 AM 39.7°F4.3°C 38.2°F3.4°C 94% 9.8 mph S15.8 kmh S 25.4 mph40.9 kmh 29.50 in999.0 mb 0.00 in0.0 mm 0.00 in0.0 mm 0.05 in1.3 mm
03:45 AM 39.9°F4.4°C 38.3°F3.5°C 94% 9.6 mph S15.4 kmh S 26.8 mph43.1 kmh 29.47 in998.0 mb 0.00 in0.0 mm 0.00 in0.0 mm 0.05 in1.3 mm
04:00 AM 39.9°F4.4°C 38.1°F3.4°C 93% 9.3 mph S15.0 kmh S 24.7 mph39.8 kmh 29.45 in997.3 mb 0.00 in0.0 mm 0.00 in0.0 mm 0.05 in1.3 mm
04:15 AM 39.9°F4.4°C 38.1°F3.4°C 93% 11.2 mph S18.0 kmh S 31.1 mph50.1 kmh 29.47 in998.0 mb 0.00 in0.0 mm 0.00 in0.0 mm 0.05 in1.3 mm
04:30 AM 40.1°F4.5°C 38.2°F3.4°C 93% 10.5 mph S16.9 kmh S 27.6 mph44.4 kmh 29.45 in997.3 mb 0.06 in1.5 mm 0.24 in6.1 mm 0.11 in2.8 mm
04:45 AM 39.9°F4.4°C 38.1°F3.4°C 93% 10.3 mph S16.6 kmh S 23.6 mph38.0 kmh 29.45 in997.3 mb 0.06 in1.5 mm 0.00 in0.0 mm 0.11 in2.8 mm
05:00 AM 40.1°F4.5°C 38.5°F3.6°C 94% 12.2 mph S19.6 kmh S 24.7 mph39.8 kmh 29.45 in997.3 mb 0.11 in2.8 mm 0.07 in1.8 mm 0.16 in4.1 mm
05:15 AM 40.3°F4.6°C 38.7°F3.7°C 94% 12.4 mph S20.0 kmh S 27.2 mph43.8 kmh 29.41 in995.9 mb 0.11 in2.8 mm 0.00 in0.0 mm 0.16 in4.1 mm
05:30 AM 40.6°F4.8°C 39.0°F3.9°C 94% 12.0 mph S19.3 kmh S 29.7 mph47.8 kmh 29.45 in997.3 mb 0.10 in2.5 mm 0.00 in0.0 mm 0.21 in5.3 mm
05:45 AM 40.6°F4.8°C 39.0°F3.9°C 94% 9.9 mph S15.9 kmh S 27.2 mph43.8 kmh 29.41 in995.9 mb 0.10 in2.5 mm 0.00 in0.0 mm 0.21 in5.3 mm
06:00 AM 41.0°F5.0°C 39.7°F4.3°C 95% 11.1 mph S17.9 kmh S 23.6 mph38.0 kmh 29.41 in995.9 mb 0.05 in1.3 mm 0.00 in0.0 mm 0.21 in5.3 mm
06:15 AM 41.2°F5.1°C 39.9°F4.4°C 95% 11.6 mph S18.7 kmh S 24.3 mph39.1 kmh 29.36 in994.2 mb 0.05 in1.3 mm 0.00 in0.0 mm 0.21 in5.3 mm
06:30 AM 41.4°F5.2°C 40.0°F4.4°C 95% 11.3 mph S18.2 kmh S 27.6 mph44.4 kmh 29.36 in994.2 mb 0.00 in0.0 mm 0.00 in0.0 mm 0.21 in5.3 mm
06:45 AM 41.7°F5.4°C 40.4°F4.7°C 95% 11.3 mph S18.2 kmh S 27.6 mph44.4 kmh 29.36 in994.2 mb 0.05 in1.3 mm 0.20 in5.1 mm 0.26 in6.6 mm
07:00 AM 41.7°F5.4°C 40.4°F4.7°C 95% 11.1 mph S17.9 kmh S 27.9 mph44.9 kmh 29.39 in995.3 mb 0.05 in1.3 mm 0.00 in0.0 mm 0.26 in6.6 mm
07:15 AM 41.7°F5.4°C 40.4°F4.7°C 95% 12.0 mph S19.3 kmh S 31.5 mph50.7 kmh 29.36 in994.2 mb 0.05 in1.3 mm 0.00 in0.0 mm 0.26 in6.6 mm
07:30 AM 41.9°F5.5°C 40.6°F4.8°C 95% 11.0 mph S17.7 kmh S 29.0 mph46.7 kmh 29.36 in994.2 mb 0.10 in2.5 mm 0.20 in5.1 mm 0.31 in7.9 mm
07:45 AM 42.1°F5.6°C 40.8°F4.9°C 95% 12.4 mph S20.0 kmh S 25.8 mph41.5 kmh 29.33 in993.2 mb 0.05 in1.3 mm 0.00 in0.0 mm 0.31 in7.9 mm
08:00 AM 42.4°F5.8°C 41.4°F5.2°C 96% 16.4 mph SW26.4 kmh SW 37.6 mph60.5 kmh 29.33 in993.2 mb 0.05 in1.3 mm 0.00 in0.0 mm 0.31 in7.9 mm
08:15 AM 42.4°F5.8°C 41.4°F5.2°C 96% 18.4 mph SSW29.6 kmh SSW 39.4 mph63.4 kmh 29.33 in993.2 mb 0.05 in1.3 mm 0.00 in0.0 mm 0.31 in7.9 mm
08:30 AM 42.6°F5.9°C 41.6°F5.3°C 96% 16.6 mph SW26.7 kmh SW 30.1 mph48.4 kmh 29.33 in993.2 mb 0.00 in0.0 mm 0.00 in0.0 mm 0.31 in7.9 mm
08:47 AM 42.8°F6.0°C 41.7°F5.4°C 96% 15.8 mph SW25.4 kmh SW 31.5 mph50.7 kmh 29.33 in993.2 mb 0.00 in0.0 mm 0.00 in0.0 mm 0.31 in7.9 mm
09:00 AM 43.0°F6.1°C 41.9°F5.5°C 96% 15.3 mph WSW24.6 kmh WSW 25.4 mph40.9 kmh 29.33 in993.2 mb 0.00 in0.0 mm 0.00 in0.0 mm 0.31 in7.9 mm
09:15 AM 43.0°F6.1°C 41.9°F5.5°C 96% 15.4 mph WSW24.8 kmh WSW 29.7 mph47.8 kmh 29.36 in994.2 mb 0.00 in0.0 mm 0.00 in0.0 mm 0.31 in7.9 mm
09:30 AM 43.2°F6.2°C 42.1°F5.6°C 96% 16.7 mph WSW26.9 kmh WSW 28.3 mph45.5 kmh 29.36 in994.2 mb 0.00 in0.0 mm 0.00 in0.0 mm 0.31 in7.9 mm
09:45 AM 43.5°F6.4°C 42.2°F5.7°C 95% 15.1 mph WSW24.3 kmh WSW 34.0 mph54.7 kmh 29.36 in994.2 mb 0.00 in0.0 mm 0.00 in0.0 mm 0.31 in7.9 mm
10:00 AM 43.9°F6.6°C 42.5°F5.8°C 95% 15.6 mph WSW25.1 kmh WSW 27.2 mph43.8 kmh 29.36 in994.2 mb 0.00 in0.0 mm 0.00 in0.0 mm 0.31 in7.9 mm
10:15 AM 45.1°F7.3°C 43.8°F6.6°C 95% 12.7 mph WSW20.4 kmh WSW 23.6 mph38.0 kmh 29.36 in994.2 mb 0.00 in0.0 mm 0.00 in0.0 mm 0.31 in7.9 mm
10:30 AM 45.3°F7.4°C 43.7°F6.5°C 94% 12.4 mph WSW20.0 kmh WSW 25.1 mph40.4 kmh 29.33 in993.2 mb 0.00 in0.0 mm 0.00 in0.0 mm 0.31 in7.9 mm
10:45 AM 45.1°F7.3°C 43.0°F6.1°C 92% 11.8 mph W19.0 kmh W 24.7 mph39.8 kmh 29.33 in993.2 mb 0.00 in0.0 mm 0.00 in0.0 mm 0.31 in7.9 mm
11:00 AM 45.1°F7.3°C 42.4°F5.8°C 90% 13.0 mph W20.9 kmh W 28.3 mph45.5 kmh 29.36 in994.2 mb 0.00 in0.0 mm 0.00 in0.0 mm 0.31 in7.9 mm
11:15 AM 45.1°F7.3°C 41.8°F5.4°C 88% 12.6 mph W20.3 kmh W 24.3 mph39.1 kmh 29.36 in994.2 mb 0.00 in0.0 mm 0.00 in0.0 mm 0.31 in7.9 mm
11:30 AM 45.3°F7.4°C 41.4°F5.2°C 86% 10.3 mph W16.6 kmh W 21.8 mph35.1 kmh 29.39 in995.3 mb 0.00 in0.0 mm 0.00 in0.0 mm 0.31 in7.9 mm
11:45 AM 45.1°F7.3°C 40.6°F4.8°C 84% 11.7 mph W18.8 kmh W 22.9 mph36.9 kmh 29.39 in995.3 mb 0.00 in0.0 mm 0.00 in0.0 mm 0.31 in7.9 mm
12:00 PM 45.1°F7.3°C 40.6°F4.8°C 84% 10.6 mph WSW17.1 kmh WSW 25.1 mph40.4 kmh 29.41 in995.9 mb 0.00 in0.0 mm 0.00 in0.0 mm 0.31 in7.9 mm
12:15 PM 45.1°F7.3°C 40.3°F4.6°C 83% 11.1 mph W17.9 kmh W 20.4 mph32.8 kmh 29.41 in995.9 mb 0.00 in0.0 mm 0.00 in0.0 mm 0.31 in7.9 mm
12:30 PM 45.5°F7.5°C 40.3°F4.6°C 82% 10.6 mph W17.1 kmh W 21.1 mph34.0 kmh 29.41 in995.9 mb 0.00 in0.0 mm 0.00 in0.0 mm 0.31 in7.9 mm
12:45 PM 45.5°F7.5°C 40.0°F4.4°C 81% 11.5 mph WSW18.5 kmh WSW 20.0 mph32.2 kmh 29.39 in995.3 mb 0.00 in0.0 mm 0.00 in0.0 mm 0.31 in7.9 mm
01:00 PM 45.7°F7.6°C 40.2°F4.6°C 81% 11.2 mph W18.0 kmh W 21.1 mph34.0 kmh 29.39 in995.3 mb 0.00 in0.0 mm 0.00 in0.0 mm 0.31 in7.9 mm
01:15 PM 45.5°F7.5°C 39.7°F4.3°C 80% 11.5 mph W18.5 kmh W 24.7 mph39.8 kmh 29.41 in995.9 mb 0.00 in0.0 mm 0.00 in0.0 mm 0.31 in7.9 mm
01:30 PM 44.8°F7.1°C 39.0°F3.9°C 80% 11.1 mph W17.9 kmh W 20.4 mph32.8 kmh 29.41 in995.9 mb 0.00 in0.0 mm 0.00 in0.0 mm 0.31 in7.9 mm
01:45 PM 45.3°F7.4°C 39.8°F4.3°C 81% 12.1 mph W19.5 kmh W 23.6 mph38.0 kmh 29.41 in995.9 mb 0.00 in0.0 mm 0.00 in0.0 mm 0.31 in7.9 mm
02:00 PM 45.3°F7.4°C 39.5°F4.2°C 80% 12.5 mph WSW20.1 kmh WSW 24.3 mph39.1 kmh 29.39 in995.3 mb 0.00 in0.0 mm 0.00 in0.0 mm 0.31 in7.9 mm
02:15 PM 46.0°F7.8°C 39.9°F4.4°C 79% 12.3 mph WSW19.8 kmh WSW 25.4 mph40.9 kmh 29.39 in995.3 mb 0.00 in0.0 mm 0.00 in0.0 mm 0.31 in7.9 mm
02:30 PM 46.0°F7.8°C 39.6°F4.2°C 78% 10.9 mph WSW17.5 kmh WSW 22.9 mph36.9 kmh 29.39 in995.3 mb 0.00 in0.0 mm 0.00 in0.0 mm 0.31 in7.9 mm
02:45 PM 45.3°F7.4°C 38.5°F3.6°C 77% 9.9 mph W15.9 kmh W 19.3 mph31.1 kmh 29.39 in995.3 mb 0.00 in0.0 mm 0.00 in0.0 mm 0.31 in7.9 mm
03:00 PM 44.6°F7.0°C 38.2°F3.4°C 78% 10.5 mph WSW16.9 kmh WSW 20.0 mph32.2 kmh 29.39 in995.3 mb 0.00 in0.0 mm 0.00 in0.0 mm 0.31 in7.9 mm
03:15 PM 44.2°F6.8°C 37.8°F3.2°C 78% 9.4 mph SW15.1 kmh SW 20.0 mph32.2 kmh 29.39 in995.3 mb 0.00 in0.0 mm 0.00 in0.0 mm 0.31 in7.9 mm
03:30 PM 44.2°F6.8°C 37.8°F3.2°C 78% 9.5 mph W15.3 kmh W 20.4 mph32.8 kmh 29.36 in994.2 mb 0.00 in0.0 mm 0.00 in0.0 mm 0.31 in7.9 mm
03:45 PM 43.7°F6.5°C 37.0°F2.8°C 77% 9.9 mph W15.9 kmh W 20.4 mph32.8 kmh 29.39 in995.3 mb 0.00 in0.0 mm 0.00 in0.0 mm 0.31 in7.9 mm
04:00 PM 43.3°F6.3°C 37.3°F2.9°C 79% 10.0 mph WSW16.1 kmh WSW 20.4 mph32.8 kmh 29.39 in995.3 mb 0.00 in0.0 mm 0.00 in0.0 mm 0.31 in7.9 mm
04:15 PM 42.8°F6.0°C 36.7°F2.6°C 79% 11.5 mph WSW18.5 kmh WSW 19.7 mph31.7 kmh 29.39 in995.3 mb 0.00 in0.0 mm 0.00 in0.0 mm 0.31 in7.9 mm
04:28 PM 42.6°F5.9°C 36.6°F2.6°C 79% 10.0 mph W16.1 kmh W 16.1 mph25.9 kmh 29.39 in995.3 mb 0.00 in0.0 mm 0.00 in0.0 mm 0.31 in7.9 mm
04:29 PM 42.4°F5.8°C 36.4°F2.4°C 79% 10.0 mph W16.1 kmh W 16.1 mph25.9 kmh 29.39 in995.3 mb 0.00 in0.0 mm 0.00 in0.0 mm 0.31 in7.9 mm
04:30 PM 42.4°F5.8°C 36.4°F2.4°C 79% 10.2 mph W16.4 kmh W 16.1 mph25.9 kmh 29.39 in995.3 mb 0.00 in0.0 mm 0.00 in0.0 mm 0.31 in7.9 mm
04:31 PM 42.4°F5.8°C 36.4°F2.4°C 79% 10.3 mph W16.6 kmh W 16.1 mph25.9 kmh 29.39 in995.3 mb 0.00 in0.0 mm 0.00 in0.0 mm 0.31 in7.9 mm
04:32 PM 42.4°F5.8°C 36.4°F2.4°C 79% 9.9 mph W15.9 kmh W 16.1 mph25.9 kmh 29.39 in995.3 mb 0.00 in0.0 mm 0.00 in0.0 mm 0.31 in7.9 mm
04:33 PM 42.4°F5.8°C 36.4°F2.4°C 79% 10.0 mph W16.1 kmh W 16.1 mph25.9 kmh 29.39 in995.3 mb 0.00 in0.0 mm 0.00 in0.0 mm 0.31 in7.9 mm
04:34 PM 42.4°F5.8°C 36.4°F2.4°C 79% 10.4 mph W16.7 kmh W 16.1 mph25.9 kmh 29.39 in995.3 mb 0.00 in0.0 mm 0.00 in0.0 mm 0.31 in7.9 mm
04:35 PM 42.3°F5.7°C 36.2°F2.3°C 79% 10.2 mph W16.4 kmh W 16.1 mph25.9 kmh 29.39 in995.3 mb 0.00 in0.0 mm 0.00 in0.0 mm 0.31 in7.9 mm
04:47 PM 41.9°F5.5°C 36.2°F2.3°C 80% 7.4 mph WSW11.9 kmh WSW 13.6 mph21.9 kmh 29.36 in994.2 mb 0.00 in0.0 mm 0.00 in0.0 mm 0.31 in7.9 mm
05:00 PM 41.2°F5.1°C 35.5°F1.9°C 80% 7.2 mph WSW11.6 kmh WSW 13.6 mph21.9 kmh 29.36 in994.2 mb 0.00 in0.0 mm 0.00 in0.0 mm 0.31 in7.9 mm
05:15 PM 40.6°F4.8°C 35.3°F1.8°C 81% 7.5 mph SW12.1 kmh SW 15.7 mph25.3 kmh 29.36 in994.2 mb 0.00 in0.0 mm 0.00 in0.0 mm 0.31 in7.9 mm
05:30 PM 40.1°F4.5°C 35.4°F1.9°C 83% 8.2 mph WSW13.2 kmh WSW 15.7 mph25.3 kmh 29.36 in994.2 mb 0.00 in0.0 mm 0.00 in0.0 mm 0.31 in7.9 mm
05:45 PM 39.7°F4.3°C 35.3°F1.8°C 84% 7.1 mph WSW11.4 kmh WSW 14.0 mph22.5 kmh 29.36 in994.2 mb 0.00 in0.0 mm 0.00 in0.0 mm 0.31 in7.9 mm
06:00 PM 39.7°F4.3°C 35.6°F2.0°C 85% 7.7 mph WSW12.4 kmh WSW 12.9 mph20.8 kmh 29.36 in994.2 mb 0.00 in0.0 mm 0.00 in0.0 mm 0.31 in7.9 mm
06:15 PM 39.9°F4.4°C 36.1°F2.3°C 86% 7.7 mph WSW12.4 kmh WSW 12.9 mph20.8 kmh 29.33 in993.2 mb 0.00 in0.0 mm 0.00 in0.0 mm 0.31 in7.9 mm
06:30 PM 39.9°F4.4°C 36.4°F2.4°C 87% 8.4 mph W13.5 kmh W 15.7 mph25.3 kmh 29.36 in994.2 mb 0.00 in0.0 mm 0.00 in0.0 mm 0.31 in7.9 mm
06:45 PM 40.1°F4.5°C 36.5°F2.5°C 87% 8.3 mph W13.4 kmh W 14.3 mph23.0 kmh 29.36 in994.2 mb 0.00 in0.0 mm 0.00 in0.0 mm 0.31 in7.9 mm
07:00 PM 40.1°F4.5°C 36.5°F2.5°C 87% 7.2 mph W11.6 kmh W 14.0 mph22.5 kmh 29.36 in994.2 mb 0.00 in0.0 mm 0.00 in0.0 mm 0.31 in7.9 mm
07:15 PM 40.1°F4.5°C 36.2°F2.3°C 86% 7.8 mph SW12.6 kmh SW 16.8 mph27.0 kmh 29.36 in994.2 mb 0.00 in0.0 mm 0.00 in0.0 mm 0.31 in7.9 mm
07:30 PM 40.1°F4.5°C 36.2°F2.3°C 86% 8.2 mph W13.2 kmh W 12.2 mph19.6 kmh 29.36 in994.2 mb 0.00 in0.0 mm 0.00 in0.0 mm 0.31 in7.9 mm
07:45 PM 39.9°F4.4°C 36.1°F2.3°C 86% 7.5 mph W12.1 kmh W 11.1 mph17.9 kmh 29.36 in994.2 mb 0.00 in0.0 mm 0.00 in0.0 mm 0.31 in7.9 mm
08:00 PM 40.1°F4.5°C 36.2°F2.3°C 86% 8.0 mph W12.9 kmh W 12.9 mph20.8 kmh 29.36 in994.2 mb 0.00 in0.0 mm 0.00 in0.0 mm 0.31 in7.9 mm
08:15 PM 39.9°F4.4°C 35.8°F2.1°C 85% 8.0 mph W12.9 kmh W 13.6 mph21.9 kmh 29.36 in994.2 mb 0.00 in0.0 mm 0.00 in0.0 mm 0.31 in7.9 mm
08:30 PM 39.7°F4.3°C 35.6°F2.0°C 85% 8.5 mph WSW13.7 kmh WSW 14.0 mph22.5 kmh 29.36 in994.2 mb 0.00 in0.0 mm 0.00 in0.0 mm 0.31 in7.9 mm
08:45 PM 39.7°F4.3°C 35.6°F2.0°C 85% 8.1 mph W13.0 kmh W 15.4 mph24.8 kmh 29.36 in994.2 mb 0.00 in0.0 mm 0.00 in0.0 mm 0.31 in7.9 mm
09:00 PM 39.9°F4.4°C 36.4°F2.4°C 87% 8.8 mph W14.2 kmh W 17.5 mph28.2 kmh 29.36 in994.2 mb 0.00 in0.0 mm 0.00 in0.0 mm 0.31 in7.9 mm
09:15 PM 40.3°F4.6°C 37.0°F2.8°C 88% 10.7 mph WSW17.2 kmh WSW 19.3 mph31.1 kmh 29.36 in994.2 mb 0.00 in0.0 mm 0.00 in0.0 mm 0.31 in7.9 mm
09:30 PM 40.5°F4.7°C 37.2°F2.9°C 88% 10.2 mph WSW16.4 kmh WSW 21.1 mph34.0 kmh 29.33 in993.2 mb 0.00 in0.0 mm 0.00 in0.0 mm 0.31 in7.9 mm
09:45 PM 40.5°F4.7°C 37.2°F2.9°C 88% 8.8 mph SW14.2 kmh SW 17.5 mph28.2 kmh 29.33 in993.2 mb 0.00 in0.0 mm 0.00 in0.0 mm 0.31 in7.9 mm
10:00 PM 40.5°F4.7°C 37.2°F2.9°C 88% 9.8 mph SW15.8 kmh SW 17.5 mph28.2 kmh 29.33 in993.2 mb 0.00 in0.0 mm 0.00 in0.0 mm 0.31 in7.9 mm
10:15 PM 40.6°F4.8°C 37.4°F3.0°C 88% 8.9 mph SW14.3 kmh SW 16.5 mph26.6 kmh 29.33 in993.2 mb 0.00 in0.0 mm 0.00 in0.0 mm 0.31 in7.9 mm
10:30 PM 40.5°F4.7°C 37.2°F2.9°C 88% 8.2 mph S13.2 kmh S 15.7 mph25.3 kmh 29.33 in993.2 mb 0.00 in0.0 mm 0.00 in0.0 mm 0.31 in7.9 mm
10:45 PM 40.6°F4.8°C 37.4°F3.0°C 88% 8.1 mph SSW13.0 kmh SSW 20.4 mph32.8 kmh 29.33 in993.2 mb 0.00 in0.0 mm 0.00 in0.0 mm 0.31 in7.9 mm
11:00 PM 40.6°F4.8°C 37.4°F3.0°C 88% 7.8 mph SSW12.6 kmh SSW 19.7 mph31.7 kmh 29.33 in993.2 mb 0.00 in0.0 mm 0.00 in0.0 mm 0.31 in7.9 mm
11:15 PM 40.6°F4.8°C 37.7°F3.2°C 89% 8.1 mph SW13.0 kmh SW 16.5 mph26.6 kmh 29.33 in993.2 mb 0.00 in0.0 mm 0.00 in0.0 mm 0.31 in7.9 mm
11:30 PM 41.0°F5.0°C 38.0°F3.3°C 89% 6.9 mph SSW11.1 kmh SSW 12.9 mph20.8 kmh 29.30 in992.2 mb 0.00 in0.0 mm 0.00 in0.0 mm 0.31 in7.9 mm
11:45 PM 41.2°F5.1°C 37.9°F3.3°C 88% 7.3 mph S11.7 kmh S 13.6 mph21.9 kmh 29.30 in992.2 mb 0.00 in0.0 mm 0.00 in0.0 mm 0.31 in7.9 mm